Time;durP1;ratioP1;P1;durP2;ratioP2;P2;SDS_P1;SDS_P2;PMS_P1;PMS_P2;Temp;Humidity;BMP_temperature;BMP_pressure;BME280_temperature;BME280_humidity;BME280_pressure;Samples;Min_cycle;Max_cycle;Signal;HPM_P1;HPM_P2
2023/08/23 00:00:11;;;;;;;2.72;1.00;;;21.00;56.70;;;;;;5009908;28;20538;-53
2023/08/23 00:02:38;;;;;;;3.00;1.10;;;20.90;56.70;;;;;;5010742;28;20128;-54
2023/08/23 00:05:07;;;;;;;2.78;1.30;;;20.90;56.70;;;;;;5010431;28;20125;-52
2023/08/23 00:07:38;;;;;;;1.55;1.23;;;20.90;56.80;;;;;;5011044;28;20038;-55
2023/08/23 00:10:05;;;;;;;2.30;1.10;;;20.80;56.70;;;;;;5009294;28;20038;-51
2023/08/23 00:12:32;;;;;;;3.38;1.00;;;20.90;56.80;;;;;;5010609;28;20069;-55
2023/08/23 00:14:58;;;;;;;1.98;1.30;;;20.80;56.80;;;;;;5010964;28;20044;-52
2023/08/23 00:17:25;;;;;;;3.47;0.80;;;20.80;56.80;;;;;;5009054;28;20045;-52
2023/08/23 00:19:55;;;;;;;1.25;1.02;;;20.80;56.90;;;;;;5010729;28;20044;-55
2023/08/23 00:22:24;;;;;;;1.52;1.20;;;20.80;57.00;;;;;;5010796;28;20095;-53
2023/08/23 00:24:57;;;;;;;1.20;1.10;;;20.70;56.90;;;;;;5011684;28;20076;-51
2023/08/23 00:27:26;;;;;;;2.53;1.40;;;20.70;57.00;;;;;;5003089;28;20054;-54
2023/08/23 00:29:54;;;;;;;2.97;1.35;;;20.70;57.10;;;;;;5004093;28;20046;-53
2023/08/23 00:32:21;;;;;;;2.60;1.65;;;20.60;57.20;;;;;;5010452;28;20042;-54
2023/08/23 00:34:49;;;;;;;1.33;1.23;;;20.60;57.40;;;;;;5011649;28;20492;-55
2023/08/23 00:37:23;;;;;;;3.50;1.35;;;20.60;57.50;;;;;;5007365;28;20046;-54
2023/08/23 00:39:50;;;;;;;2.38;1.50;;;20.50;57.40;;;;;;5010548;28;20074;-53
2023/08/23 00:42:21;;;;;;;1.45;1.20;;;20.60;57.50;;;;;;4992388;28;20042;-53
2023/08/23 00:44:48;;;;;;;2.90;1.60;;;20.50;57.50;;;;;;5008246;28;20666;-55
2023/08/23 00:47:15;;;;;;;1.50;1.40;;;20.50;57.30;;;;;;5008902;28;20049;-54
2023/08/23 00:49:42;;;;;;;2.60;1.60;;;20.50;57.40;;;;;;5010757;28;20069;-53
2023/08/23 00:52:09;;;;;;;1.75;1.38;;;20.40;57.40;;;;;;4991507;28;20042;-54
2023/08/23 00:54:38;;;;;;;1.88;1.48;;;20.40;57.40;;;;;;5006787;28;20416;-54
2023/08/23 00:57:09;;;;;;;2.97;1.48;;;20.40;57.50;;;;;;5009986;28;20112;-53
2023/08/23 00:59:42;;;;;;;1.52;1.27;;;20.40;58.20;;;;;;5007992;28;20052;-54
2023/08/23 01:02:15;;;;;;;1.40;1.30;;;20.40;57.80;;;;;;4991945;28;20061;-50
2023/08/23 01:04:42;;;;;;;2.22;1.83;;;20.30;57.60;;;;;;5009736;28;20601;-52
2023/08/23 01:07:21;;;;;;;2.65;1.73;;;20.30;57.60;;;;;;5009001;28;20046;-52
2023/08/23 01:10:11;;;;;;;1.77;1.50;;;20.30;58.00;;;;;;5007238;28;20101;-53
2023/08/23 01:13:04;;;;;;;1.67;1.52;;;20.30;58.10;;;;;;5008082;28;20073;-52
2023/08/23 01:15:36;;;;;;;2.63;1.60;;;20.20;57.80;;;;;;4983207;28;20138;-53
2023/08/23 01:18:05;;;;;;;1.85;0.95;;;20.20;57.90;;;;;;5005175;28;20062;-54
2023/08/23 01:20:33;;;;;;;1.83;1.42;;;20.20;57.70;;;;;;4989456;28;20072;-50
2023/08/23 01:23:13;;;;;;;1.27;1.17;;;20.20;58.00;;;;;;4988211;28;20058;-52
2023/08/23 01:25:47;;;;;;;1.98;1.52;;;20.10;58.50;;;;;;4988434;28;20115;-53
2023/08/23 01:28:14;;;;;;;1.38;1.27;;;20.10;58.20;;;;;;4991965;28;20110;-54
2023/08/23 01:30:42;;;;;;;2.08;1.48;;;20.10;58.10;;;;;;5005964;28;20049;-50
2023/08/23 01:33:24;;;;;;;1.42;1.17;;;20.00;58.70;;;;;;5009571;28;20042;-54
2023/08/23 01:35:56;;;;;;;1.15;1.05;;;20.00;58.50;;;;;;4999344;28;20050;-52
2023/08/23 01:38:26;;;;;;;1.92;1.25;;;20.00;58.50;;;;;;4988856;28;20066;-51
2023/08/23 01:40:55;;;;;;;1.67;1.23;;;20.00;58.10;;;;;;5008630;28;20042;-54
2023/08/23 01:43:28;;;;;;;3.67;1.52;;;20.00;58.20;;;;;;5009471;28;20049;-54
2023/08/23 01:45:58;;;;;;;4.25;1.27;;;19.90;58.10;;;;;;5007391;28;20476;-54
2023/08/23 01:48:27;;;;;;;5.97;1.50;;;20.00;58.40;;;;;;5009482;28;20049;-55
2023/08/23 01:50:55;;;;;;;2.00;1.00;;;19.90;58.20;;;;;;5008475;28;20060;-55
2023/08/23 01:53:24;;;;;;;1.13;1.13;;;19.90;58.30;;;;;;4989821;28;20427;-55
2023/08/23 01:55:53;;;;;;;1.40;1.30;;;19.90;58.20;;;;;;5008201;28;20492;-52
2023/08/23 01:58:25;;;;;;;2.25;1.30;;;19.80;58.50;;;;;;5007736;28;20038;-53
2023/08/23 02:00:55;;;;;;;1.52;1.40;;;19.80;58.50;;;;;;5005954;28;20052;-54
2023/08/23 02:03:24;;;;;;;2.20;1.35;;;19.80;58.90;;;;;;5009170;28;20053;-50
2023/08/23 02:05:54;;;;;;;2.00;1.30;;;19.80;58.90;;;;;;5007963;28;20042;-54
2023/08/23 02:08:25;;;;;;;2.55;1.38;;;19.80;58.90;;;;;;4989787;28;20046;-54
2023/08/23 02:10:54;;;;;;;1.50;1.40;;;19.80;58.70;;;;;;5008573;28;20100;-50
2023/08/23 02:13:36;;;;;;;;;;;;;;;;;;;;;
2023/08/23 02:16:03;;;;;;;1.45;1.40;;;19.80;58.90;;;;;;5009882;28;20101;-54
2023/08/23 02:18:30;;;;;;;1.40;1.30;;;19.70;58.60;;;;;;5006100;28;20401;-53
2023/08/23 02:20:57;;;;;;;1.90;1.20;;;19.70;58.70;;;;;;5008902;28;20799;-53
2023/08/23 02:23:28;;;;;;;7.40;1.90;;;19.70;58.90;;;;;;5008800;28;20062;-51
2023/08/23 02:25:54;;;;;;;2.03;1.27;;;19.70;58.70;;;;;;4989531;28;20084;-53
2023/08/23 02:28:21;;;;;;;2.45;1.45;;;19.60;58.90;;;;;;5008534;28;20050;-52
2023/08/23 02:30:48;;;;;;;2.13;1.92;;;19.60;58.90;;;;;;5005194;28;20504;-52
2023/08/23 02:33:18;;;;;;;3.92;1.30;;;19.50;59.00;;;;;;5008363;28;20042;-52
2023/08/23 02:35:46;;;;;;;1.70;1.40;;;19.60;59.10;;;;;;5009158;28;20489;-52
2023/08/23 02:38:18;;;;;;;4.53;2.20;;;19.60;59.10;;;;;;4988023;28;20108;-54
2023/08/23 02:40:44;;;;;;;2.80;1.50;;;19.50;59.20;;;;;;5008667;28;20046;-50
2023/08/23 02:43:12;;;;;;;1.45;1.05;;;19.50;59.00;;;;;;5008559;28;20471;-54
2023/08/23 02:45:47;;;;;;;1.83;1.60;;;19.50;59.10;;;;;;5006632;28;20038;-55
2023/08/23 02:48:16;;;;;;;2.63;1.10;;;19.50;59.10;;;;;;5007240;28;20088;-55
2023/08/23 02:50:46;;;;;;;1.80;1.45;;;19.40;59.10;;;;;;5007111;28;20042;-54
2023/08/23 02:53:12;;;;;;;1.50;1.40;;;19.40;59.10;;;;;;4989065;28;20057;-50
2023/08/23 02:55:43;;;;;;;2.33;1.13;;;19.40;59.30;;;;;;5006359;28;20037;-53
2023/08/23 02:58:20;;;;;;;3.40;1.42;;;19.30;59.70;;;;;;5008740;28;20113;-54
2023/08/23 03:00:47;;;;;;;2.35;1.35;;;19.30;59.70;;;;;;5003516;28;20065;-51
2023/08/23 03:03:15;;;;;;;3.92;1.30;;;19.40;59.80;;;;;;5007541;28;20498;-53
2023/08/23 03:05:53;;;;;;;2.03;1.02;;;19.30;59.70;;;;;;5005584;28;20045;-54
2023/08/23 03:08:24;;;;;;;1.80;1.20;;;19.30;59.90;;;;;;5004493;28;20061;-55
2023/08/23 03:11:00;;;;;;;3.90;1.63;;;19.30;59.40;;;;;;5008855;28;20523;-54
2023/08/23 03:13:27;;;;;;;2.30;1.30;;;19.20;59.30;;;;;;4990893;28;20096;-53
2023/08/23 03:15:56;;;;;;;1.10;1.00;;;19.20;59.20;;;;;;5008856;28;20062;-54
2023/08/23 03:18:26;;;;;;;1.70;0.93;;;19.20;59.40;;;;;;4988564;28;20037;-52
2023/08/23 03:20:53;;;;;;;2.80;1.70;;;19.20;59.30;;;;;;5006725;28;20144;-55
2023/08/23 03:23:22;;;;;;;3.92;1.75;;;19.20;59.30;;;;;;5008559;28;20050;-51
2023/08/23 03:25:50;;;;;;;1.50;1.40;;;19.10;59.40;;;;;;4991648;28;20038;-53
2023/08/23 03:28:21;;;;;;;1.88;1.40;;;19.10;59.40;;;;;;5006169;28;20050;-52
2023/08/23 03:30:48;;;;;;;1.60;1.30;;;19.00;59.40;;;;;;5002830;28;20045;-55
2023/08/23 03:33:15;;;;;;;2.65;1.90;;;19.00;59.60;;;;;;4991021;28;20408;-53
2023/08/23 03:35:42;;;;;;;2.35;1.30;;;19.00;59.70;;;;;;4986342;28;20046;-53
2023/08/23 03:38:09;;;;;;;2.72;1.33;;;19.00;59.70;;;;;;5008827;28;20030;-52
2023/08/23 03:40:39;;;;;;;2.00;1.45;;;19.00;59.70;;;;;;4987525;28;20050;-54
2023/08/23 03:43:06;;;;;;;3.38;1.30;;;19.00;60.00;;;;;;4991218;28;20039;-54
2023/08/23 03:45:44;;;;;;;2.00;1.20;;;18.90;59.70;;;;;;5010232;28;20113;-50
2023/08/23 03:48:11;;;;;;;1.60;1.45;;;18.90;59.70;;;;;;5012895;28;20046;-52
2023/08/23 03:50:38;;;;;;;2.22;1.40;;;18.90;59.80;;;;;;4988154;28;20043;-52
2023/08/23 03:53:07;;;;;;;1.83;1.33;;;18.90;59.90;;;;;;5012616;28;20038;-52
2023/08/23 03:55:36;;;;;;;1.48;1.13;;;18.90;59.90;;;;;;4991292;28;20038;-49
2023/08/23 03:58:07;;;;;;;1.80;1.48;;;18.80;60.10;;;;;;4991437;28;20455;-51
2023/08/23 04:00:36;;;;;;;3.65;1.40;;;18.80;60.10;;;;;;5004257;28;20100;-53
2023/08/23 04:03:04;;;;;;;1.45;1.27;;;18.80;60.10;;;;;;5012394;28;20065;-49
2023/08/23 04:05:39;;;;;;;2.53;1.17;;;18.80;60.10;;;;;;4993150;28;20054;-52
2023/08/23 04:08:07;;;;;;;1.83;1.27;;;18.80;60.30;;;;;;5005772;28;20092;-54
2023/08/23 04:10:38;;;;;;;2.20;1.10;;;18.80;60.10;;;;;;5009771;28;20046;-50
2023/08/23 04:13:07;;;;;;;2.25;1.25;;;18.70;60.20;;;;;;5018577;28;20276;-49
2023/08/23 04:15:36;;;;;;;3.05;1.60;;;18.70;60.10;;;;;;4972567;28;20042;-52
2023/08/23 04:18:03;;;;;;;3.70;1.35;;;18.70;60.10;;;;;;5009062;28;20115;-53
2023/08/23 04:20:32;;;;;;;1.83;1.73;;;18.70;60.10;;;;;;5007491;28;20046;-49
2023/08/23 04:22:58;;;;;;;2.38;1.63;;;18.70;60.10;;;;;;5007706;28;20053;-56
2023/08/23 04:25:25;;;;;;;1.70;1.23;;;18.70;60.10;;;;;;5010895;23;20049;-51
2023/08/23 04:27:52;;;;;;;3.38;1.45;;;18.70;60.30;;;;;;4991950;28;20060;-48
2023/08/23 04:30:19;;;;;;;2.72;1.30;;;18.60;60.30;;;;;;5009810;28;20073;-47
2023/08/23 04:32:46;;;;;;;1.50;1.40;;;18.60;60.50;;;;;;4993859;28;20129;-47
2023/08/23 04:35:14;;;;;;;1.40;1.27;;;18.60;60.50;;;;;;5004824;28;20573;-50
2023/08/23 04:37:44;;;;;;;1.48;1.25;;;18.50;60.50;;;;;;5031497;28;20060;-47
2023/08/23 04:40:12;;;;;;;1.27;1.10;;;18.60;60.60;;;;;;5015851;28;20055;-49
2023/08/23 04:42:42;;;;;;;4.05;2.17;;;18.50;60.60;;;;;;4997673;28;20228;-51
2023/08/23 04:45:11;;;;;;;2.33;1.35;;;18.50;60.50;;;;;;5012960;28;20077;-48
2023/08/23 04:47:38;;;;;;;2.72;1.45;;;18.50;60.60;;;;;;5011206;28;20723;-50
2023/08/23 04:50:09;;;;;;;3.55;1.17;;;18.50;60.60;;;;;;5029689;28;20415;-50
2023/08/23 04:52:41;;;;;;;;;;;18.50;60.60;;;;;;5009976;28;20649;-51
2023/08/23 04:55:10;;;;;;;2.88;1.58;;;18.50;60.30;;;;;;5030127;28;19921;-48
2023/08/23 04:57:38;;;;;;;2.00;1.30;;;18.50;60.40;;;;;;5006501;28;20060;-52
2023/08/23 05:00:10;;;;;;;1.52;1.42;;;18.50;60.60;;;;;;5008863;28;20053;-49
2023/08/23 05:02:41;;;;;;;2.22;1.50;;;18.50;60.80;;;;;;5011643;28;20052;-51
2023/08/23 05:05:09;;;;;;;3.22;1.60;;;18.40;60.80;;;;;;5012073;28;20128;-52
2023/08/23 05:07:36;;;;;;;1.27;1.17;;;18.50;61.20;;;;;;5010696;28;20049;-52
2023/08/23 05:10:04;;;;;;;3.50;1.73;;;18.40;61.20;;;;;;5010662;28;20413;-51
2023/08/23 05:12:41;;;;;;;2.85;1.80;;;18.40;61.50;;;;;;5011601;28;20550;-52
2023/08/23 05:15:10;;;;;;;2.33;1.45;;;18.50;61.80;;;;;;5005651;28;20048;-50
2023/08/23 05:17:44;;;;;;;1.75;1.55;;;18.50;61.70;;;;;;5008632;28;20435;-51
2023/08/23 05:20:11;;;;;;;1.95;1.05;;;18.50;61.70;;;;;;5029267;28;20404;-52
2023/08/23 05:22:42;;;;;;;4.32;1.20;;;18.50;61.70;;;;;;5011002;28;20075;-49
2023/08/23 05:25:14;;;;;;;2.35;1.00;;;18.50;61.80;;;;;;5011226;28;20052;-50
2023/08/23 05:27:46;;;;;;;5.15;2.42;;;18.50;61.90;;;;;;5027606;28;20073;-52
2023/08/23 05:30:13;;;;;;;2.05;1.65;;;18.60;62.20;;;;;;5027883;28;20037;-52
2023/08/23 05:32:42;;;;;;;1.90;1.70;;;18.60;62.20;;;;;;5010687;28;20048;-50
2023/08/23 05:35:10;;;;;;;6.95;2.70;;;18.60;62.40;;;;;;5011194;28;20053;-52
2023/08/23 05:37:37;;;;;;;4.63;2.17;;;18.60;62.60;;;;;;5005493;28;20144;-52
2023/08/23 05:40:12;;;;;;;2.00;1.80;;;18.70;62.80;;;;;;5009744;28;20049;-52
2023/08/23 05:42:38;;;;;;;4.00;2.40;;;18.70;63.40;;;;;;5025639;28;20053;-51
2023/08/23 05:45:09;;;;;;;2.35;2.15;;;18.70;63.00;;;;;;5010884;28;20103;-52
2023/08/23 05:47:38;;;;;;;3.03;2.30;;;18.80;63.20;;;;;;5011535;28;20100;-52
2023/08/23 05:50:07;;;;;;;4.72;2.17;;;18.80;63.30;;;;;;5007768;28;20041;-53
2023/08/23 05:52:34;;;;;;;2.53;1.98;;;18.90;63.70;;;;;;5011054;28;20045;-52
2023/08/23 05:55:03;;;;;;;3.00;2.40;;;18.90;63.50;;;;;;5021930;28;20487;-53
2023/08/23 05:57:35;;;;;;;5.60;2.55;;;18.90;63.60;;;;;;5028696;28;20116;-52
2023/08/23 06:00:02;;;;;;;5.85;2.28;;;19.00;63.80;;;;;;5007935;28;20207;-52
2023/08/23 06:02:38;;;;;;;6.25;2.45;;;19.00;63.70;;;;;;5028856;28;20045;-52
2023/08/23 06:05:10;;;;;;;3.17;2.88;;;19.10;64.00;;;;;;5021530;28;20037;-52
2023/08/23 06:07:37;;;;;;;;;;;19.10;64.10;;;;;;5028105;28;20068;-52
2023/08/23 06:10:05;;;;;;;7.55;2.22;;;19.20;63.80;;;;;;5026641;28;19975;-52
2023/08/23 06:12:31;;;;;;;7.72;3.00;;;19.20;63.70;;;;;;5027385;28;20033;-52
2023/08/23 06:15:01;;;;;;;5.22;3.30;;;19.30;64.50;;;;;;5027893;28;20254;-48
2023/08/23 06:17:30;;;;;;;6.13;3.53;;;19.30;64.60;;;;;;5024918;28;20092;-52
2023/08/23 06:19:59;;;;;;;4.13;3.78;;;19.40;65.00;;;;;;5026506;28;20052;-53
2023/08/23 06:22:27;;;;;;;4.50;3.75;;;19.40;65.10;;;;;;5028688;28;20419;-52
2023/08/23 06:25:00;;;;;;;4.97;3.85;;;19.50;65.40;;;;;;5027991;28;20403;-51
2023/08/23 06:27:29;;;;;;;4.32;3.30;;;19.50;65.60;;;;;;5027475;28;20129;-51
2023/08/23 06:29:58;;;;;;;6.53;3.90;;;19.60;65.60;;;;;;5005421;28;20125;-52
2023/08/23 06:32:25;;;;;;;4.95;4.30;;;19.70;65.80;;;;;;5028284;28;20045;-52
2023/08/23 06:34:53;;;;;;;6.18;4.63;;;19.70;65.90;;;;;;5028026;28;20511;-52
2023/08/23 06:37:23;;;;;;;5.53;5.03;;;19.80;66.10;;;;;;5028639;28;20072;-52
2023/08/23 06:39:50;;;;;;;4.75;3.70;;;19.80;66.10;;;;;;5026758;28;20038;-51
2023/08/23 06:42:17;;;;;;;5.65;5.15;;;19.90;66.20;;;;;;5028907;28;20064;-52
2023/08/23 06:44:44;;;;;;;7.32;5.47;;;20.00;66.20;;;;;;5025008;28;20049;-51
2023/08/23 06:47:11;;;;;;;7.45;5.55;;;20.00;66.30;;;;;;5029334;28;20037;-52
2023/08/23 06:49:40;;;;;;;6.18;5.35;;;20.10;66.40;;;;;;5028358;28;20080;-52
2023/08/23 06:52:12;;;;;;;6.72;6.03;;;20.20;66.60;;;;;;5029175;28;20040;-52
2023/08/23 06:54:38;;;;;;;6.82;5.85;;;20.20;67.20;;;;;;5027542;28;20080;-49
2023/08/23 06:57:05;;;;;;;7.22;6.00;;;20.30;66.50;;;;;;5029112;28;20520;-52
2023/08/23 06:59:36;;;;;;;7.28;6.05;;;20.30;66.60;;;;;;5026977;28;20096;-52
2023/08/23 07:02:04;;;;;;;7.78;6.35;;;20.40;66.70;;;;;;5023245;28;20246;-52
2023/08/23 07:04:36;;;;;;;6.75;6.05;;;20.40;66.90;;;;;;5028315;28;20128;-52
2023/08/23 07:07:07;;;;;;;7.60;6.25;;;20.50;66.80;;;;;;5023073;28;20038;-53
2023/08/23 07:09:34;;;;;;;7.55;6.53;;;20.60;66.90;;;;;;5025924;28;20583;-53
2023/08/23 07:12:00;;;;;;;6.60;5.72;;;20.60;66.80;;;;;;5028577;28;20107;-51
2023/08/23 07:14:32;;;;;;;8.45;6.30;;;20.70;67.00;;;;;;5030904;28;20095;-52
2023/08/23 07:16:58;;;;;;;7.88;6.10;;;20.70;67.00;;;;;;5029002;28;20507;-50
2023/08/23 07:19:26;;;;;;;7.90;7.18;;;20.80;67.10;;;;;;5006538;28;20041;-52
2023/08/23 07:21:54;;;;;;;10.85;7.45;;;20.80;66.90;;;;;;5032438;28;20124;-52
2023/08/23 07:24:22;;;;;;;8.30;6.50;;;20.90;66.70;;;;;;5031618;28;20042;-51
2023/08/23 07:26:54;;;;;;;7.55;6.53;;;21.00;66.80;;;;;;5031602;28;20046;-51
2023/08/23 07:29:21;;;;;;;8.13;6.25;;;21.00;66.80;;;;;;5029373;28;20045;-51
2023/08/23 07:31:47;;;;;;;9.88;6.93;;;21.10;66.60;;;;;;5032033;28;20038;-53
2023/08/23 07:34:20;;;;;;;9.35;6.35;;;21.10;66.60;;;;;;5031933;28;20038;-52
2023/08/23 07:36:50;;;;;;;10.10;7.22;;;21.20;66.80;;;;;;5031229;28;20530;-52
2023/08/23 07:39:21;;;;;;;9.65;6.75;;;21.20;66.60;;;;;;5027546;28;20038;-52
2023/08/23 07:41:50;;;;;;;7.63;5.78;;;21.30;66.40;;;;;;5029489;28;20041;-52
2023/08/23 07:44:28;;;;;;;7.10;6.45;;;21.30;66.10;;;;;;5029413;28;20462;-52
2023/08/23 07:46:58;;;;;;;12.77;7.20;;;21.40;66.00;;;;;;5031297;28;20722;-53
2023/08/23 07:49:32;;;;;;;8.93;6.55;;;21.50;65.90;;;;;;5031246;28;20056;-53
2023/08/23 07:52:02;;;;;;;8.35;6.88;;;21.50;65.70;;;;;;5030983;28;20103;-53
2023/08/23 07:54:29;;;;;;;8.73;7.00;;;21.60;65.50;;;;;;5031354;28;20103;-49
2023/08/23 07:57:00;;;;;;;8.75;6.53;;;21.60;65.60;;;;;;5030626;28;20053;-51
2023/08/23 07:59:29;;;;;;;7.43;5.85;;;21.70;65.50;;;;;;5025564;28;20044;-52
2023/08/23 08:01:57;;;;;;;12.30;7.15;;;21.80;64.90;;;;;;5032123;28;20060;-52
2023/08/23 08:04:25;;;;;;;10.40;6.50;;;21.80;64.80;;;;;;5031406;28;20041;-53
2023/08/23 08:06:51;;;;;;;8.95;6.40;;;21.90;64.80;;;;;;5031552;28;20512;-52
2023/08/23 08:09:18;;;;;;;7.95;5.03;;;21.90;64.70;;;;;;5030208;28;20546;-52
2023/08/23 08:11:50;;;;;;;5.43;4.55;;;22.00;64.60;;;;;;5031224;28;20175;-52
2023/08/23 08:14:16;;;;;;;6.18;4.80;;;22.10;63.60;;;;;;5031101;28;20136;-53
2023/08/23 08:16:47;;;;;;;9.48;5.40;;;22.10;63.50;;;;;;5029985;28;20048;-52
2023/08/23 08:19:13;;;;;;;4.70;3.90;;;22.20;63.30;;;;;;5031482;28;20087;-51
2023/08/23 08:21:40;;;;;;;5.63;3.45;;;22.20;62.30;;;;;;5031775;28;20474;-52
2023/08/23 08:24:07;;;;;;;5.32;3.53;;;22.30;61.80;;;;;;5030770;28;20053;-52
2023/08/23 08:26:36;;;;;;;7.68;3.63;;;22.30;61.60;;;;;;5029414;28;20045;-52
2023/08/23 08:29:04;;;;;;;5.38;4.18;;;22.40;61.60;;;;;;5029165;28;20128;-50
2023/08/23 08:31:32;;;;;;;6.68;4.22;;;22.40;61.40;;;;;;5030403;28;20098;-51
2023/08/23 08:34:01;;;;;;;6.28;5.07;;;22.50;61.70;;;;;;5031857;28;20036;-51
2023/08/23 08:36:28;;;;;;;5.65;3.67;;;22.60;60.80;;;;;;5031201;28;20045;-50
2023/08/23 08:38:56;;;;;;;5.32;3.75;;;22.60;60.70;;;;;;5030116;28;20087;-50
2023/08/23 08:41:25;;;;;;;7.82;4.50;;;22.60;60.60;;;;;;5029998;28;20092;-52
2023/08/23 08:43:53;;;;;;;4.25;3.58;;;22.70;61.10;;;;;;5029880;28;20128;-48
2023/08/23 08:46:22;;;;;;;5.35;3.97;;;22.70;60.10;;;;;;5031037;28;20045;-53
2023/08/23 08:48:51;;;;;;;8.13;4.35;;;22.80;59.60;;;;;;5029555;28;20064;-52
2023/08/23 08:51:21;;;;;;;5.28;4.20;;;22.90;59.40;;;;;;5029233;28;20139;-52
2023/08/23 08:53:51;;;;;;;5.82;4.00;;;23.00;59.10;;;;;;5030977;28;20088;-50
2023/08/23 08:56:19;;;;;;;5.05;4.05;;;23.00;59.20;;;;;;5024271;28;20045;-51
2023/08/23 08:58:46;;;;;;;4.93;4.28;;;23.00;59.10;;;;;;5029132;28;20137;-52
2023/08/23 09:01:14;;;;;;;5.38;3.85;;;23.10;59.20;;;;;;5030647;28;20124;-51
2023/08/23 09:03:41;;;;;;;6.15;3.50;;;23.10;59.30;;;;;;5030999;28;20051;-53
2023/08/23 09:06:11;;;;;;;4.93;3.70;;;23.20;59.30;;;;;;5030437;28;20080;-52
2023/08/23 09:08:39;;;;;;;6.43;3.33;;;23.20;58.90;;;;;;5028556;28;20720;-52
2023/08/23 09:11:06;;;;;;;4.93;3.67;;;23.30;59.40;;;;;;5030245;28;20500;-50
2023/08/23 09:13:32;;;;;;;4.03;3.50;;;23.30;58.70;;;;;;5031528;28;20045;-47
2023/08/23 09:16:02;;;;;;;3.90;3.53;;;23.40;58.80;;;;;;5013107;28;20048;-51
2023/08/23 09:18:28;;;;;;;6.15;4.57;;;23.40;58.10;;;;;;5029438;28;20517;-49
2023/08/23 09:20:56;;;;;;;6.00;3.45;;;23.50;58.00;;;;;;5028735;28;20080;-52
2023/08/23 09:23:34;;;;;;;4.03;2.80;;;23.60;57.80;;;;;;5031247;28;20041;-52
2023/08/23 09:26:08;;;;;;;3.67;2.83;;;23.60;57.50;;;;;;5029929;28;20045;-50
2023/08/23 09:28:39;;;;;;;5.32;3.03;;;23.70;57.40;;;;;;5028895;28;20163;-52
2023/08/23 09:31:10;;;;;;;7.10;3.28;;;23.70;57.00;;;;;;5028528;28;20439;-49
2023/08/23 09:33:39;;;;;;;4.80;3.10;;;23.80;56.80;;;;;;5030214;28;20111;-53
2023/08/23 09:36:06;;;;;;;5.15;2.53;;;23.80;56.50;;;;;;5027901;28;20120;-51
2023/08/23 09:38:33;;;;;;;3.33;3.03;;;23.80;56.60;;;;;;5030816;28;20099;-51
2023/08/23 09:41:02;;;;;;;7.00;3.03;;;23.90;56.70;;;;;;5025020;28;20109;-51
2023/08/23 09:43:32;;;;;;;6.75;3.08;;;24.00;56.20;;;;;;5025996;28;20407;-53
2023/08/23 09:46:04;;;;;;;6.00;3.55;;;24.00;56.70;;;;;;5028384;28;20088;-53
2023/08/23 09:48:33;;;;;;;4.88;2.85;;;24.10;56.80;;;;;;5011513;28;20037;-51
2023/08/23 09:51:02;;;;;;;5.30;3.30;;;24.20;56.80;;;;;;5027529;28;20048;-50
2023/08/23 09:53:40;;;;;;;2.67;1.98;;;24.20;57.30;;;;;;5023174;28;20065;-52
2023/08/23 09:56:08;;;;;;;3.95;2.40;;;24.30;56.40;;;;;;5027429;28;20042;-53
2023/08/23 09:58:36;;;;;;;4.93;2.33;;;24.30;55.90;;;;;;5028497;28;20060;-51
2023/08/23 10:01:09;;;;;;;3.50;2.10;;;24.40;55.60;;;;;;5029090;28;20095;-52
2023/08/23 10:03:42;;;;;;;5.88;2.08;;;24.50;55.50;;;;;;5031471;28;20060;-50
2023/08/23 10:06:09;;;;;;;3.97;2.20;;;24.50;56.50;;;;;;5029126;28;20041;-52
2023/08/23 10:08:36;;;;;;;5.35;1.70;;;24.60;56.30;;;;;;5010312;28;20512;-52
2023/08/23 10:11:03;;;;;;;4.82;2.70;;;24.60;56.20;;;;;;5026952;28;20072;-53
2023/08/23 10:13:34;;;;;;;3.70;2.25;;;24.70;56.00;;;;;;5030289;28;20041;-52
2023/08/23 10:16:06;;;;;;;7.32;2.10;;;24.80;55.70;;;;;;5027875;28;20585;-52
2023/08/23 10:18:34;;;;;;;4.95;2.00;;;24.80;55.50;;;;;;5027685;28;20037;-52
2023/08/23 10:21:02;;;;;;;5.13;2.20;;;24.90;56.00;;;;;;5026943;28;20129;-52
2023/08/23 10:23:41;;;;;;;2.70;1.77;;;25.00;56.20;;;;;;5024916;28;20041;-50
2023/08/23 10:26:20;;;;;;;8.48;2.35;;;25.10;56.10;;;;;;5026430;28;20049;-53
2023/08/23 10:28:52;;;;;;;4.60;1.77;;;25.20;56.00;;;;;;5025513;28;20045;-52
2023/08/23 10:31:25;;;;;;;2.50;2.23;;;25.30;55.80;;;;;;5027953;28;20049;-52
2023/08/23 10:33:56;;;;;;;2.60;1.92;;;25.30;56.40;;;;;;5028433;28;20041;-49
2023/08/23 10:36:30;;;;;;;4.97;1.98;;;25.40;56.40;;;;;;5022984;28;20287;-52
2023/08/23 10:38:59;;;;;;;3.70;1.65;;;25.50;55.90;;;;;;5027550;28;20106;-52
2023/08/23 10:41:25;;;;;;;3.63;2.00;;;25.60;56.00;;;;;;5023424;28;20112;-52
2023/08/23 10:43:53;;;;;;;2.50;1.73;;;25.60;56.30;;;;;;5023920;28;20484;-52
2023/08/23 10:46:22;;;;;;;2.05;1.55;;;25.70;56.20;;;;;;5026881;28;20579;-51
2023/08/23 10:48:48;;;;;;;4.53;1.83;;;25.80;55.50;;;;;;5029610;28;20053;-52
2023/08/23 10:51:16;;;;;;;2.88;1.50;;;25.90;53.70;;;;;;5023967;28;20049;-51
2023/08/23 10:53:44;;;;;;;3.42;1.50;;;26.00;54.00;;;;;;5029435;28;20045;-52
2023/08/23 10:56:11;;;;;;;2.42;1.70;;;26.00;53.80;;;;;;5027257;28;20034;-52
2023/08/23 10:58:44;;;;;;;3.53;1.42;;;26.00;53.80;;;;;;5022910;28;22561;-51
2023/08/23 11:01:11;;;;;;;2.85;1.40;;;26.10;53.20;;;;;;5009696;28;20053;-53
2023/08/23 11:03:41;;;;;;;5.28;1.42;;;26.20;53.20;;;;;;5024496;28;20454;-52
2023/08/23 11:06:08;;;;;;;3.28;1.92;;;26.20;52.10;;;;;;5024596;28;20073;-53
2023/08/23 11:08:35;;;;;;;4.30;2.40;;;26.30;51.70;;;;;;5027753;28;20042;-53
2023/08/23 11:11:05;;;;;;;5.28;2.13;;;26.30;51.70;;;;;;5025425;28;20060;-51
2023/08/23 11:13:38;;;;;;;2.40;1.60;;;26.40;50.80;;;;;;5019630;28;20101;-53
2023/08/23 11:16:05;;;;;;;2.13;1.85;;;26.50;51.40;;;;;;5022241;28;20117;-51
2023/08/23 11:18:32;;;;;;;6.30;2.30;;;26.60;51.10;;;;;;5027977;28;20041;-53
2023/08/23 11:21:01;;;;;;;2.97;1.75;;;26.60;51.10;;;;;;5031423;28;20117;-52
2023/08/23 11:23:36;;;;;;;4.28;1.80;;;26.70;51.10;;;;;;5027806;28;20048;-49
2023/08/23 11:26:06;;;;;;;3.15;1.17;;;26.70;50.80;;;;;;5026833;28;20132;-52
2023/08/23 11:28:40;;;;;;;2.38;1.23;;;26.80;48.90;;;;;;5029212;28;20087;-53
2023/08/23 11:31:09;;;;;;;2.92;1.33;;;26.80;49.10;;;;;;5030944;28;20499;-53
2023/08/23 11:33:40;;;;;;;2.05;1.20;;;26.80;49.10;;;;;;5031783;28;20064;-51
2023/08/23 11:36:07;;;;;;;2.92;0.90;;;26.80;49.30;;;;;;5030856;28;20107;-53
2023/08/23 11:38:39;;;;;;;1.17;1.00;;;26.90;48.00;;;;;;5032667;28;20542;-52
2023/08/23 11:41:08;;;;;;;1.60;0.85;;;26.90;47.30;;;;;;5025478;28;20116;-49
2023/08/23 11:43:43;;;;;;;2.30;1.08;;;27.00;47.20;;;;;;5031111;28;20042;-53
2023/08/23 11:46:10;;;;;;;3.58;1.13;;;27.00;46.50;;;;;;5029059;28;20049;-53
2023/08/23 11:48:38;;;;;;;1.50;1.20;;;27.00;46.10;;;;;;5029913;28;20076;-50
2023/08/23 11:51:09;;;;;;;3.97;1.30;;;27.10;46.90;;;;;;5029667;28;20037;-53
2023/08/23 11:53:35;;;;;;;2.47;1.70;;;27.10;47.00;;;;;;5023107;28;20114;-52
2023/08/23 11:56:08;;;;;;;4.35;1.48;;;27.10;47.60;;;;;;5030717;28;20452;-51
2023/08/23 11:58:38;;;;;;;3.08;1.58;;;27.20;45.80;;;;;;5026846;28;20037;-53
2023/08/23 12:01:04;;;;;;;2.13;1.48;;;27.20;46.70;;;;;;5030195;28;20065;-49
2023/08/23 12:03:33;;;;;;;1.80;1.30;;;27.30;47.30;;;;;;5029241;28;20095;-53
2023/08/23 12:05:59;;;;;;;3.08;1.30;;;27.30;46.30;;;;;;5031776;28;20034;-52
2023/08/23 12:08:26;;;;;;;3.22;1.65;;;27.40;44.90;;;;;;5030482;28;20472;-53
2023/08/23 12:10:59;;;;;;;2.60;1.73;;;27.40;44.20;;;;;;5030998;28;20033;-52
2023/08/23 12:13:26;;;;;;;6.03;1.85;;;27.40;44.00;;;;;;5031010;28;20124;-53
2023/08/23 12:15:53;;;;;;;1.23;1.13;;;27.40;44.20;;;;;;5030597;28;20487;-51
2023/08/23 12:18:23;;;;;;;2.40;1.40;;;27.50;43.80;;;;;;5028994;28;20119;-53
2023/08/23 12:20:51;;;;;;;3.33;1.67;;;27.60;42.70;;;;;;5031455;28;20080;-53
2023/08/23 12:23:18;;;;;;;1.92;1.33;;;27.60;43.10;;;;;;5031039;28;20124;-53
2023/08/23 12:25:45;;;;;;;6.00;1.70;;;27.70;43.20;;;;;;5030765;28;20041;-53
2023/08/23 12:28:12;;;;;;;6.43;1.90;;;27.80;42.70;;;;;;5030486;28;20061;-52
2023/08/23 12:30:38;;;;;;;5.13;1.98;;;27.90;43.20;;;;;;5029596;28;20076;-50
2023/08/23 12:33:05;;;;;;;3.15;2.13;;;27.90;43.70;;;;;;5030554;28;20112;-52
2023/08/23 12:35:42;;;;;;;2.53;1.92;;;27.90;42.60;;;;;;5030930;28;20092;-53
2023/08/23 12:38:09;;;;;;;2.30;1.95;;;28.00;42.60;;;;;;5027171;28;20053;-51
2023/08/23 12:40:38;;;;;;;3.17;2.17;;;28.10;42.30;;;;;;5028938;28;20068;-51
2023/08/23 12:43:05;;;;;;;3.25;2.10;;;28.10;41.60;;;;;;5030297;28;20053;-52
2023/08/23 12:45:39;;;;;;;3.83;2.00;;;28.20;41.20;;;;;;5024393;28;20128;-51
2023/08/23 12:48:11;;;;;;;4.25;2.00;;;28.30;41.80;;;;;;5029983;28;20508;-53
2023/08/23 12:50:38;;;;;;;3.10;2.55;;;28.40;41.40;;;;;;5027759;28;20124;-50
2023/08/23 12:53:09;;;;;;;4.13;3.10;;;28.50;41.80;;;;;;5026676;28;20041;-52
2023/08/23 12:55:38;;;;;;;2.90;2.63;;;28.60;40.80;;;;;;5025992;28;20121;-51
2023/08/23 12:58:05;;;;;;;3.85;2.20;;;28.60;41.10;;;;;;5029862;28;20033;-53